Time;durP1;ratioP1;P1;durP2;ratioP2;P2;SDS_P1;SDS_P2;PMS_P1;PMS_P2;Temp;Humidity;BMP_temperature;BMP_pressure;BME280_temperature;BME280_humidity;BME280_pressure;Samples;Min_cycle;Max_cycle;Signal;HPM_P1;HPM_P2
2021/10/06 00:02:17;;;;;;;2.15;0.70;;;;;17.30;100476.00;;;;5038488;28;20199;-78
2021/10/06 00:04:44;;;;;;;5.97;0.80;;;;;17.30;100475.00;;;;5045032;28;20192;-79
2021/10/06 00:07:11;;;;;;;2.00;0.70;;;;;17.30;100476.00;;;;5041915;28;20196;-79
2021/10/06 00:09:38;;;;;;;1.92;1.00;;;;;17.30;100485.00;;;;5043597;28;20203;-78
2021/10/06 00:12:08;;;;;;;4.30;1.20;;;;;17.20;100476.00;;;;5052383;28;20194;-79
2021/10/06 00:14:35;;;;;;;2.42;0.95;;;;;17.30;100477.00;;;;5038632;28;20200;-79
2021/10/06 00:17:02;;;;;;;1.83;1.10;;;;;17.30;100474.00;;;;5042161;28;20273;-79
2021/10/06 00:19:30;;;;;;;2.15;1.08;;;;;17.30;100479.00;;;;5037622;28;20230;-79
2021/10/06 00:21:57;;;;;;;2.78;1.10;;;;;17.20;100472.00;;;;5045308;28;20199;-79
2021/10/06 00:24:25;;;;;;;1.80;1.17;;;;;17.30;100471.00;;;;5047567;28;20815;-78
2021/10/06 00:26:52;;;;;;;1.67;0.88;;;;;17.30;100481.00;;;;5028580;28;20208;-79
2021/10/06 00:29:21;;;;;;;2.28;1.35;;;;;17.20;100480.00;;;;5031407;28;20286;-80
2021/10/06 00:31:48;;;;;;;2.92;1.20;;;;;17.30;100484.00;;;;5030759;28;20207;-79
2021/10/06 00:34:15;;;;;;;1.98;0.85;;;;;17.30;100483.00;;;;5044387;28;20197;-79
2021/10/06 00:36:42;;;;;;;2.75;0.95;;;;;17.30;100481.00;;;;5046835;28;20260;-80
2021/10/06 00:39:10;;;;;;;1.38;1.02;;;;;17.30;100479.00;;;;5043786;28;20230;-79
2021/10/06 00:41:37;;;;;;;0.93;0.77;;;;;17.30;100476.00;;;;5036983;28;20552;-80
2021/10/06 00:44:05;;;;;;;2.30;1.25;;;;;17.30;100479.00;;;;5038626;28;20199;-79
2021/10/06 00:46:33;;;;;;;4.82;1.00;;;;;17.30;100481.00;;;;5033655;28;20208;-79
2021/10/06 00:49:00;;;;;;;3.38;1.13;;;;;17.30;100487.00;;;;5028254;28;20227;-79
2021/10/06 00:51:28;;;;;;;3.75;1.00;;;;;17.40;100483.00;;;;5036014;28;20202;-78
2021/10/06 00:53:55;;;;;;;1.65;0.70;;;;;17.40;100484.00;;;;5043902;28;20542;-79
2021/10/06 00:56:22;;;;;;;3.25;1.00;;;;;17.40;100482.00;;;;5048463;28;20227;-80
2021/10/06 00:58:50;;;;;;;2.72;0.98;;;;;17.40;100488.00;;;;5047858;28;20203;-80
2021/10/06 01:01:17;;;;;;;1.48;0.65;;;;;17.40;100493.00;;;;5032919;28;20211;-79
2021/10/06 01:03:46;;;;;;;1.70;0.95;;;;;17.40;100494.00;;;;5027433;28;20549;-80
2021/10/06 01:06:13;;;;;;;4.53;1.00;;;;;17.40;100500.00;;;;5033985;28;20200;-80
2021/10/06 01:08:40;;;;;;;2.72;0.70;;;;;17.40;100497.00;;;;5057784;28;20210;-79
2021/10/06 01:11:08;;;;;;;2.78;0.75;;;;;17.50;100511.00;;;;5038277;28;20211;-80
2021/10/06 01:13:36;;;;;;;3.38;0.80;;;;;17.50;100505.00;;;;5029869;28;20246;-79
2021/10/06 01:16:05;;;;;;;5.85;1.23;;;;;17.50;100497.00;;;;5045637;28;20227;-80
2021/10/06 01:18:32;;;;;;;3.38;0.88;;;;;17.50;100499.00;;;;5043128;28;20206;-80
2021/10/06 01:21:10;;;;;;;2.67;0.70;;;;;17.40;100511.00;;;;5038306;28;20195;-79
2021/10/06 01:23:38;;;;;;;3.47;1.00;;;;;17.50;100507.00;;;;5031499;28;20204;-80
2021/10/06 01:26:05;;;;;;;3.83;0.60;;;;;17.50;100514.00;;;;5035168;28;20208;-79
2021/10/06 01:28:32;;;;;;;4.32;1.50;;;;;17.50;100507.00;;;;5043899;28;20200;-79
2021/10/06 01:30:59;;;;;;;0.98;0.70;;;;;17.50;100518.00;;;;5038732;28;20189;-79
2021/10/06 01:33:27;;;;;;;2.40;1.27;;;;;17.50;100512.00;;;;5037923;28;20219;-80
2021/10/06 01:35:54;;;;;;;1.38;0.80;;;;;17.50;100504.00;;;;5033077;28;20203;-78
2021/10/06 01:38:23;;;;;;;2.22;0.80;;;;;17.50;100513.00;;;;5034410;28;20765;-79
2021/10/06 01:40:50;;;;;;;1.88;0.60;;;;;17.50;100513.00;;;;5037050;28;20212;-79
2021/10/06 01:43:17;;;;;;;2.10;0.80;;;;;17.50;100504.00;;;;5036704;28;20569;-79
2021/10/06 01:45:44;;;;;;;1.95;0.47;;;;;17.50;100516.00;;;;5039198;28;20199;-79
2021/10/06 01:48:14;;;;;;;4.60;0.60;;;;;17.50;100525.00;;;;5049458;28;20223;-80
2021/10/06 01:50:42;;;;;;;1.92;0.60;;;;;17.50;100516.00;;;;5048434;28;20207;-79
2021/10/06 01:53:11;;;;;;;1.10;0.63;;;;;17.50;100514.00;;;;5035347;28;20203;-79
2021/10/06 01:55:40;;;;;;;1.98;0.80;;;;;17.50;100516.00;;;;5042257;28;20206;-80
2021/10/06 01:58:10;;;;;;;2.45;0.85;;;;;17.50;100523.00;;;;5050498;28;20231;-80
2021/10/06 02:00:38;;;;;;;2.10;0.70;;;;;17.50;100519.00;;;;5048622;28;20202;-79
2021/10/06 02:03:05;;;;;;;3.10;0.70;;;;;17.50;100518.00;;;;5040167;28;20188;-79
2021/10/06 02:05:33;;;;;;;2.50;0.75;;;;;17.50;100530.00;;;;5039087;28;20199;-80
2021/10/06 02:08:01;;;;;;;2.65;0.60;;;;;17.50;100512.00;;;;5060979;28;20289;-79
2021/10/06 02:10:29;;;;;;;3.90;1.08;;;;;17.50;100516.00;;;;5039153;28;20292;-79
2021/10/06 02:12:58;;;;;;;3.78;1.23;;;;;17.40;100526.00;;;;5033443;28;20196;-80
2021/10/06 02:15:25;;;;;;;1.45;0.80;;;;;17.50;100516.00;;;;5040958;28;20203;-80
2021/10/06 02:17:53;;;;;;;1.38;0.90;;;;;17.50;100522.00;;;;5036721;28;20463;-80
2021/10/06 02:20:20;;;;;;;1.63;0.70;;;;;17.50;100520.00;;;;5042561;28;20204;-79
2021/10/06 02:22:48;;;;;;;1.50;0.80;;;;;17.50;100521.00;;;;5042894;28;20193;-79
2021/10/06 02:25:15;;;;;;;2.05;0.90;;;;;17.50;100521.00;;;;5037983;28;20199;-79
2021/10/06 02:27:42;;;;;;;1.92;0.90;;;;;17.50;100522.00;;;;5041198;28;20199;-79
2021/10/06 02:30:12;;;;;;;2.03;1.02;;;;;17.50;100517.00;;;;5044283;28;20200;-79
2021/10/06 02:32:40;;;;;;;1.75;0.80;;;;;17.50;100512.00;;;;5047161;28;20196;-80
2021/10/06 02:35:09;;;;;;;2.03;0.90;;;;;17.50;100510.00;;;;5045398;28;20192;-79
2021/10/06 02:37:37;;;;;;;2.60;1.20;;;;;17.50;100515.00;;;;5031135;28;20224;-79
2021/10/06 02:40:06;;;;;;;4.97;1.25;;;;;17.50;100516.00;;;;5035832;28;20570;-79
2021/10/06 02:42:34;;;;;;;5.70;0.73;;;;;17.50;100519.00;;;;5038506;28;20203;-79
2021/10/06 02:45:01;;;;;;;1.92;1.02;;;;;17.50;100522.00;;;;5030450;28;20200;-79
2021/10/06 02:47:29;;;;;;;2.60;0.65;;;;;17.40;100527.00;;;;5042618;28;20223;-78
2021/10/06 02:49:57;;;;;;;1.83;0.82;;;;;17.40;100526.00;;;;5037677;28;20254;-79
2021/10/06 02:52:24;;;;;;;1.80;1.02;;;;;17.40;100532.00;;;;5038716;28;20222;-79
2021/10/06 02:54:51;;;;;;;1.73;0.70;;;;;17.40;100532.00;;;;5039814;28;20201;-79
2021/10/06 02:57:18;;;;;;;1.38;0.60;;;;;17.40;100535.00;;;;5038758;28;20219;-79
2021/10/06 02:59:46;;;;;;;1.50;1.00;;;;;17.40;100533.00;;;;5040765;28;20199;-79
2021/10/06 03:02:13;;;;;;;1.83;0.40;;;;;17.40;100531.00;;;;5039982;28;20245;-79
2021/10/06 03:04:42;;;;;;;1.10;0.52;;;;;17.40;100532.00;;;;5042475;28;20199;-78
2021/10/06 03:07:09;;;;;;;1.90;0.52;;;;;17.40;100536.00;;;;5049507;28;20203;-80
2021/10/06 03:09:36;;;;;;;1.88;0.38;;;;;17.40;100526.00;;;;5045507;28;20219;-79
2021/10/06 03:12:04;;;;;;;3.22;0.50;;;;;17.40;100530.00;;;;5036969;28;20208;-79
2021/10/06 03:14:31;;;;;;;1.77;0.75;;;;;17.40;100524.00;;;;5039558;28;20208;-79
2021/10/06 03:16:59;;;;;;;1.77;0.85;;;;;17.40;100527.00;;;;5050297;28;20234;-79
2021/10/06 03:19:26;;;;;;;1.00;0.38;;;;;17.40;100537.00;;;;5035308;28;20203;-80
2021/10/06 03:21:54;;;;;;;1.27;0.47;;;;;17.30;100534.00;;;;5041959;28;20197;-79
2021/10/06 03:24:22;;;;;;;1.95;0.35;;;;;17.40;100533.00;;;;5047454;28;20207;-79
2021/10/06 03:26:49;;;;;;;0.60;0.20;;;;;17.30;100541.00;;;;5047308;28;20200;-79
2021/10/06 03:29:16;;;;;;;2.92;0.45;;;;;17.30;100540.00;;;;5039339;28;20209;-79
2021/10/06 03:31:43;;;;;;;1.85;0.40;;;;;17.30;100535.00;;;;5033444;28;20670;-79
2021/10/06 03:34:11;;;;;;;1.50;0.20;;;;;17.30;100537.00;;;;5037652;28;20263;-79
2021/10/06 03:36:38;;;;;;;1.15;0.30;;;;;17.30;100542.00;;;;5033691;28;20231;-80
2021/10/06 03:39:06;;;;;;;1.65;0.20;;;;;17.30;100547.00;;;;5042520;28;20223;-79
2021/10/06 03:41:34;;;;;;;0.65;0.30;;;;;17.30;100550.00;;;;5048444;28;20262;-79
2021/10/06 03:44:01;;;;;;;1.55;0.32;;;;;17.30;100554.00;;;;5054500;28;20854;-78
2021/10/06 03:46:28;;;;;;;5.30;0.30;;;;;17.20;100549.00;;;;5042071;28;20203;-79
2021/10/06 03:48:55;;;;;;;0.43;0.20;;;;;17.20;100556.00;;;;5050268;28;20978;-79
2021/10/06 03:51:23;;;;;;;0.52;0.30;;;;;17.20;100553.00;;;;5044522;28;20192;-79
2021/10/06 03:53:50;;;;;;;1.10;0.35;;;;;17.20;100556.00;;;;5035099;28;20200;-79
2021/10/06 03:56:19;;;;;;;0.20;0.15;;;;;17.20;100556.00;;;;5049942;28;20207;-79
2021/10/06 03:58:46;;;;;;;0.20;0.15;;;;;17.20;100557.00;;;;5049683;28;20422;-78
2021/10/06 04:01:13;;;;;;;0.90;0.20;;;;;17.20;100564.00;;;;5039224;28;20677;-78
2021/10/06 04:03:40;;;;;;;0.90;0.30;;;;;17.20;100552.00;;;;5039201;28;20207;-79
2021/10/06 04:06:08;;;;;;;0.28;0.10;;;;;17.20;100544.00;;;;5037813;28;20189;-79
2021/10/06 04:08:35;;;;;;;0.90;0.20;;;;;17.20;100549.00;;;;5049993;28;20192;-79
2021/10/06 04:11:02;;;;;;;1.05;0.30;;;;;17.10;100552.00;;;;5043135;28;20241;-79
2021/10/06 04:13:31;;;;;;;1.13;0.20;;;;;17.10;100552.00;;;;5034481;28;20207;-78
2021/10/06 04:15:58;;;;;;;0.73;0.28;;;;;17.20;100552.00;;;;5040120;28;20246;-79
2021/10/06 04:18:25;;;;;;;1.80;0.43;;;;;17.20;100552.00;;;;5029618;28;20228;-79
2021/10/06 04:20:52;;;;;;;2.03;0.38;;;;;17.10;100556.00;;;;5037900;28;20196;-79
2021/10/06 04:23:20;;;;;;;1.13;0.57;;;;;17.10;100550.00;;;;5033582;28;20646;-79
2021/10/06 04:25:47;;;;;;;1.30;0.43;;;;;17.10;100557.00;;;;5030451;28;20586;-78
2021/10/06 04:28:14;;;;;;;0.52;0.20;;;;;17.10;100558.00;;;;5039376;28;20610;-79
2021/10/06 04:30:43;;;;;;;2.45;0.20;;;;;17.10;100557.00;;;;5042043;28;20203;-79
2021/10/06 04:33:10;;;;;;;0.68;0.30;;;;;17.00;100563.00;;;;5039049;28;20200;-79
2021/10/06 04:35:37;;;;;;;0.95;0.17;;;;;17.00;100560.00;;;;5032388;28;20199;-78
2021/10/06 04:38:04;;;;;;;1.92;0.30;;;;;17.00;100554.00;;;;5032274;28;20637;-79
2021/10/06 04:40:32;;;;;;;0.98;0.30;;;;;17.00;100554.00;;;;5032411;28;20206;-79
2021/10/06 04:42:59;;;;;;;1.58;0.50;;;;;17.00;100551.00;;;;5037461;28;20195;-78
2021/10/06 04:45:26;;;;;;;0.63;0.22;;;;;16.90;100539.00;;;;5034022;28;20204;-78
2021/10/06 04:47:57;;;;;;;0.73;0.30;;;;;16.90;100534.00;;;;5038025;28;20719;-78
2021/10/06 04:50:27;;;;;;;3.00;0.47;;;;;16.90;100536.00;;;;5040629;28;20199;-78
2021/10/06 04:52:54;;;;;;;1.38;0.30;;;;;16.90;100532.00;;;;5047097;28;20684;-77
2021/10/06 04:55:21;;;;;;;2.00;0.35;;;;;16.90;100532.00;;;;5044728;28;20199;-78
2021/10/06 04:57:49;;;;;;;1.25;0.47;;;;;16.90;100531.00;;;;5046972;28;20223;-77
2021/10/06 05:00:16;;;;;;;1.88;0.47;;;;;16.90;100525.00;;;;5042117;28;20207;-77
2021/10/06 05:02:43;;;;;;;1.63;0.47;;;;;16.90;100529.00;;;;5043598;28;20207;-78
2021/10/06 05:05:12;;;;;;;1.95;0.47;;;;;16.90;100525.00;;;;5041597;28;20564;-78
2021/10/06 05:07:39;;;;;;;1.10;0.77;;;;;16.90;100521.00;;;;5048196;28;20203;-77
2021/10/06 05:10:07;;;;;;;0.98;0.52;;;;;16.90;100517.00;;;;5030703;28;20200;-77
2021/10/06 05:12:35;;;;;;;1.55;0.73;;;;;16.90;100514.00;;;;5047906;28;20596;-77
2021/10/06 05:15:02;;;;;;;1.33;0.50;;;;;16.90;100513.00;;;;5046069;28;20206;-78
2021/10/06 05:17:29;;;;;;;0.88;0.73;;;;;16.80;100508.00;;;;5049569;28;20231;-78
2021/10/06 05:19:56;;;;;;;0.80;0.45;;;;;16.80;100510.00;;;;5043421;28;20196;-78
2021/10/06 05:22:25;;;;;;;1.98;0.85;;;;;16.80;100510.00;;;;5046605;28;20199;-78
2021/10/06 05:24:52;;;;;;;1.50;0.63;;;;;16.80;100499.00;;;;5042893;28;20218;-77
2021/10/06 05:27:19;;;;;;;1.13;0.70;;;;;16.80;100506.00;;;;5044961;28;20196;-78
2021/10/06 05:29:46;;;;;;;0.73;0.52;;;;;16.80;100501.00;;;;5045655;28;20217;-78
2021/10/06 05:32:14;;;;;;;2.55;0.80;;;;;16.80;100507.00;;;;5047571;28;20198;-77
2021/10/06 05:34:41;;;;;;;2.10;0.80;;;;;16.80;100530.00;;;;5046015;28;20218;-78
2021/10/06 05:37:08;;;;;;;1.98;1.10;;;;;16.80;100522.00;;;;5036930;28;20203;-78
2021/10/06 05:39:37;;;;;;;2.40;0.82;;;;;16.70;100517.00;;;;5041278;28;20232;-79
2021/10/06 05:42:04;;;;;;;2.80;0.75;;;;;16.70;100527.00;;;;5041737;28;20199;-80
2021/10/06 05:44:32;;;;;;;1.60;1.17;;;;;16.80;100531.00;;;;5038344;28;20961;-80
2021/10/06 05:46:59;;;;;;;1.45;0.75;;;;;16.70;100518.00;;;;5050399;28;20245;-77
2021/10/06 05:49:27;;;;;;;3.00;0.90;;;;;16.70;100523.00;;;;5045081;28;20223;-80
2021/10/06 05:51:54;;;;;;;2.45;1.05;;;;;16.70;100534.00;;;;5044015;28;20204;-78
2021/10/06 05:54:23;;;;;;;3.75;1.08;;;;;16.70;100537.00;;;;5032802;28;20203;-77
2021/10/06 05:56:51;;;;;;;2.85;0.90;;;;;16.70;100526.00;;;;5031315;28;20582;-78
2021/10/06 05:59:19;;;;;;;2.78;0.93;;;;;16.70;100537.00;;;;5037609;28;20690;-77
2021/10/06 06:01:46;;;;;;;1.48;0.80;;;;;16.70;100529.00;;;;5046442;28;20218;-77
2021/10/06 06:04:13;;;;;;;2.92;0.77;;;;;16.60;100539.00;;;;5031279;28;20197;-77
2021/10/06 06:06:43;;;;;;;1.25;0.73;;;;;16.70;100567.00;;;;5062095;28;20241;-77
2021/10/06 06:09:11;;;;;;;2.22;0.70;;;;;16.70;100569.00;;;;5037617;28;20651;-77
2021/10/06 06:11:38;;;;;;;3.42;0.95;;;;;16.70;100569.00;;;;5033741;28;20203;-76
2021/10/06 06:14:07;;;;;;;0.85;0.57;;;;;16.70;100570.00;;;;5035776;28;20551;-75
2021/10/06 06:16:34;;;;;;;1.80;0.70;;;;;16.70;100570.00;;;;5047734;28;20204;-78
2021/10/06 06:19:02;;;;;;;1.63;0.75;;;;;16.70;100572.00;;;;5039363;28;20231;-78
2021/10/06 06:21:29;;;;;;;1.13;0.90;;;;;16.80;100576.00;;;;5044242;28;20211;-77
2021/10/06 06:23:56;;;;;;;1.15;0.75;;;;;16.80;100580.00;;;;5061023;28;20799;-76
2021/10/06 06:26:24;;;;;;;2.10;0.70;;;;;16.80;100574.00;;;;5065068;28;20199;-77
2021/10/06 06:28:51;;;;;;;1.00;0.60;;;;;16.80;100573.00;;;;5061970;28;20207;-78
2021/10/06 06:31:19;;;;;;;0.80;0.40;;;;;16.80;100574.00;;;;5041848;28;20204;-77
2021/10/06 06:33:47;;;;;;;3.03;1.00;;;;;16.80;100590.00;;;;5051019;28;20708;-77
2021/10/06 06:36:14;;;;;;;1.30;1.00;;;;;16.90;100593.00;;;;5037220;28;20192;-77
2021/10/06 06:38:41;;;;;;;1.13;0.55;;;;;16.90;100601.00;;;;5049009;28;20707;-77
2021/10/06 06:41:09;;;;;;;0.80;0.70;;;;;16.90;100603.00;;;;5058573;28;20203;-78
2021/10/06 06:43:36;;;;;;;2.53;0.70;;;;;16.90;100610.00;;;;5042355;28;20195;-76
2021/10/06 06:46:03;;;;;;;0.85;0.47;;;;;16.90;100621.00;;;;5029584;28;20196;-77
2021/10/06 06:48:32;;;;;;;0.93;0.40;;;;;16.90;100618.00;;;;5036248;28;20212;-76
2021/10/06 06:50:59;;;;;;;1.08;0.57;;;;;16.90;100620.00;;;;5034892;28;20206;-77
2021/10/06 06:53:28;;;;;;;0.80;0.50;;;;;17.00;100626.00;;;;5035045;28;20669;-77
2021/10/06 06:55:55;;;;;;;0.70;0.38;;;;;17.00;100626.00;;;;5032383;28;20197;-76
2021/10/06 06:58:23;;;;;;;1.48;0.40;;;;;17.00;100623.00;;;;5039310;28;20228;-77
2021/10/06 07:00:50;;;;;;;3.58;0.70;;;;;17.00;100631.00;;;;5053050;28;20196;-78
2021/10/06 07:03:18;;;;;;;1.38;0.65;;;;;17.00;100632.00;;;;5042909;28;20291;-79
2021/10/06 07:05:47;;;;;;;1.70;0.47;;;;;17.00;100636.00;;;;5030776;28;20560;-77
2021/10/06 07:08:15;;;;;;;1.65;0.65;;;;;17.00;100634.00;;;;5035365;28;21006;-78
2021/10/06 07:10:42;;;;;;;1.88;0.65;;;;;17.00;100634.00;;;;5036370;28;20196;-78
2021/10/06 07:13:10;;;;;;;1.17;0.55;;;;;17.00;100639.00;;;;5046869;28;20204;-78
2021/10/06 07:15:37;;;;;;;1.73;0.57;;;;;17.00;100641.00;;;;5041686;28;20208;-78
2021/10/06 07:18:04;;;;;;;2.58;0.50;;;;;17.00;100650.00;;;;5041061;28;20231;-77
2021/10/06 07:20:31;;;;;;;2.15;0.60;;;;;17.00;100648.00;;;;5042468;28;20196;-77
2021/10/06 07:23:00;;;;;;;0.77;0.50;;;;;17.10;100647.00;;;;5034739;28;20200;-77
2021/10/06 07:25:27;;;;;;;1.67;0.57;;;;;17.10;100647.00;;;;5041207;28;20230;-77
2021/10/06 07:27:56;;;;;;;0.70;0.40;;;;;17.10;100653.00;;;;5036632;28;20215;-78
2021/10/06 07:30:23;;;;;;;2.60;0.98;;;;;17.10;100653.00;;;;5038947;28;20188;-77
2021/10/06 07:32:50;;;;;;;1.70;0.40;;;;;17.10;100652.00;;;;5028904;28;20196;-77
2021/10/06 07:35:17;;;;;;;2.95;0.60;;;;;17.10;100653.00;;;;5029392;28;20250;-76
2021/10/06 07:37:44;;;;;;;2.15;0.60;;;;;17.10;100658.00;;;;5039135;28;20203;-77
2021/10/06 07:40:14;;;;;;;0.95;0.52;;;;;17.20;100648.00;;;;5034768;28;20581;-77
2021/10/06 07:42:42;;;;;;;2.53;0.47;;;;;17.20;100655.00;;;;5041641;28;20207;-77
2021/10/06 07:45:10;;;;;;;3.17;0.40;;;;;17.20;100650.00;;;;5034680;28;20681;-77
2021/10/06 07:47:37;;;;;;;1.30;0.50;;;;;17.20;100654.00;;;;5029545;28;20231;-77
2021/10/06 07:50:05;;;;;;;2.75;0.50;;;;;17.30;100658.00;;;;5039216;28;20254;-79
2021/10/06 07:52:32;;;;;;;1.02;0.50;;;;;17.30;100658.00;;;;5039466;28;20622;-77
2021/10/06 07:55:00;;;;;;;5.03;0.65;;;;;17.30;100662.00;;;;5036530;28;20239;-77
2021/10/06 07:57:28;;;;;;;1.23;0.38;;;;;17.30;100664.00;;;;5037450;28;20254;-79
2021/10/06 07:59:56;;;;;;;3.33;0.73;;;;;17.30;100672.00;;;;5038342;28;20224;-79
2021/10/06 08:02:25;;;;;;;1.45;0.40;;;;;17.30;100667.00;;;;5028513;28;20192;-78
2021/10/06 08:04:53;;;;;;;2.15;0.22;;;;;17.40;100671.00;;;;5030778;28;20765;-79
2021/10/06 08:07:20;;;;;;;1.40;0.47;;;;;17.40;100675.00;;;;5028700;28;20196;-79
2021/10/06 08:09:47;;;;;;;3.70;0.70;;;;;17.40;100680.00;;;;5030084;28;20199;-78
2021/10/06 08:12:15;;;;;;;1.77;0.68;;;;;17.50;100688.00;;;;5038086;28;20195;-78
2021/10/06 08:14:44;;;;;;;1.17;0.20;;;;;17.50;100691.00;;;;5034597;28;20195;-79
2021/10/06 08:17:11;;;;;;;0.32;0.22;;;;;17.60;100686.00;;;;5031581;28;20199;-79
2021/10/06 08:19:38;;;;;;;1.25;0.63;;;;;17.60;100694.00;;;;5037896;28;20271;-79
2021/10/06 08:22:06;;;;;;;2.42;0.45;;;;;17.60;100697.00;;;;5047459;28;20315;-79
2021/10/06 08:24:33;;;;;;;4.57;0.40;;;;;17.70;100708.00;;;;5052132;28;20208;-79
2021/10/06 08:27:00;;;;;;;1.45;0.30;;;;;17.70;100725.00;;;;5049169;28;20199;-78
2021/10/06 08:29:28;;;;;;;0.13;0.10;;;;;17.70;100721.00;;;;5038981;28;20215;-78
2021/10/06 08:31:56;;;;;;;3.33;0.50;;;;;17.80;100726.00;;;;5043364;28;20199;-78
2021/10/06 08:34:24;;;;;;;1.73;0.73;;;;;17.80;100739.00;;;;5038040;28;20197;-78
2021/10/06 08:36:51;;;;;;;1.27;0.30;;;;;17.90;100745.00;;;;5036113;28;20208;-78
2021/10/06 08:39:18;;;;;;;1.05;0.30;;;;;17.90;100740.00;;;;5028944;28;20240;-78
2021/10/06 08:41:45;;;;;;;0.73;0.32;;;;;17.90;100748.00;;;;5033484;28;20202;-79
2021/10/06 08:44:13;;;;;;;1.10;0.30;;;;;18.00;100739.00;;;;5042824;28;20199;-78
2021/10/06 08:46:40;;;;;;;2.20;0.30;;;;;18.00;100745.00;;;;5036627;28;20216;-79
2021/10/06 08:49:09;;;;;;;0.95;0.30;;;;;18.00;100750.00;;;;5045420;28;20251;-80
2021/10/06 08:51:37;;;;;;;0.80;0.38;;;;;18.00;100764.00;;;;5032282;28;20207;-79
2021/10/06 08:54:04;;;;;;;3.33;0.38;;;;;18.10;100770.00;;;;5030358;28;20204;-79
2021/10/06 08:56:31;;;;;;;3.00;0.47;;;;;18.10;100773.00;;;;5031717;28;20855;-78
2021/10/06 08:58:58;;;;;;;1.25;0.40;;;;;18.10;100784.00;;;;5027840;28;20223;-78
2021/10/06 09:01:27;;;;;;;2.08;0.32;;;;;18.20;100783.00;;;;5033095;28;20262;-79
2021/10/06 09:03:57;;;;;;;0.57;0.20;;;;;18.20;100787.00;;;;5035590;28;20191;-78
2021/10/06 09:06:33;;;;;;;1.05;0.10;;;;;18.20;100794.00;;;;5031859;28;20200;-78
2021/10/06 09:09:12;;;;;;;1.33;0.20;;;;;18.30;100803.00;;;;5033939;28;20253;-78
2021/10/06 09:11:39;;;;;;;1.55;0.32;;;;;18.40;100802.00;;;;5035249;28;20557;-78
2021/10/06 09:14:07;;;;;;;1.42;0.20;;;;;18.40;100811.00;;;;5032431;28;20194;-79
2021/10/06 09:16:37;;;;;;;0.60;0.17;;;;;18.50;100817.00;;;;5032808;28;20641;-78
2021/10/06 09:19:05;;;;;;;0.63;0.25;;;;;18.50;100818.00;;;;5044868;28;20247;-78
2021/10/06 09:21:37;;;;;;;2.03;0.60;;;;;18.50;100823.00;;;;5033268;28;20641;-79
2021/10/06 09:24:08;;;;;;;1.65;0.30;;;;;18.50;100821.00;;;;5035544;28;20689;-79
2021/10/06 09:26:35;;;;;;;0.52;0.32;;;;;18.60;100826.00;;;;5044067;28;20211;-79
2021/10/06 09:29:03;;;;;;;2.03;0.60;;;;;18.60;100831.00;;;;5035729;28;20291;-79
2021/10/06 09:31:30;;;;;;;3.67;0.70;;;;;18.60;100830.00;;;;5027864;28;20196;-79
2021/10/06 09:33:59;;;;;;;1.08;0.40;;;;;18.70;100838.00;;;;5029323;28;20577;-79
2021/10/06 09:36:30;;;;;;;3.40;0.85;;;;;18.70;100850.00;;;;5034664;28;20239;-79
2021/10/06 09:39:01;;;;;;;1.23;0.43;;;;;18.70;100853.00;;;;5034668;28;20223;-79
2021/10/06 09:41:32;;;;;;;2.25;0.40;;;;;18.70;100852.00;;;;5027351;28;20200;-79
2021/10/06 09:44:01;;;;;;;1.50;0.45;;;;;18.80;100856.00;;;;5029300;28;20211;-79
2021/10/06 09:46:35;;;;;;;2.63;0.88;;;;;18.80;100859.00;;;;5032242;28;20207;-78
2021/10/06 09:49:02;;;;;;;2.25;0.57;;;;;18.80;100866.00;;;;5028977;28;20243;-79
2021/10/06 09:51:29;;;;;;;1.80;0.40;;;;;18.90;100863.00;;;;5031797;28;20673;-79
2021/10/06 09:54:00;;;;;;;0.55;0.30;;;;;18.90;100855.00;;;;5035886;28;20211;-79
2021/10/06 09:56:38;;;;;;;1.65;0.82;;;;;18.90;100871.00;;;;5038345;28;20610;-79
2021/10/06 09:59:06;;;;;;;2.70;0.60;;;;;19.00;100872.00;;;;5030703;28;20224;-78
2021/10/06 10:01:37;;;;;;;2.53;0.80;;;;;19.00;100871.00;;;;5040296;28;20668;-79
2021/10/06 10:04:07;;;;;;;0.57;0.30;;;;;19.00;100878.00;;;;5039129;28;20618;-78
2021/10/06 10:06:34;;;;;;;1.48;0.68;;;;;19.10;100897.00;;;;5033375;28;20201;-79
2021/10/06 10:09:05;;;;;;;0.47;0.20;;;;;19.10;100892.00;;;;5037390;28;20214;-78
2021/10/06 10:11:35;;;;;;;1.45;0.32;;;;;19.10;100903.00;;;;5037865;28;20207;-78
2021/10/06 10:14:04;;;;;;;0.98;0.20;;;;;19.20;100902.00;;;;5043632;28;20273;-79
2021/10/06 10:16:32;;;;;;;0.10;0.10;;;;;19.30;100901.00;;;;5042014;28;20279;-78
2021/10/06 10:19:05;;;;;;;1.77;0.30;;;;;19.30;100912.00;;;;5032833;28;20724;-79
2021/10/06 10:21:33;;;;;;;1.33;0.50;;;;;19.40;100903.00;;;;5038377;28;20200;-79
2021/10/06 10:24:14;;;;;;;1.95;0.32;;;;;19.40;100923.00;;;;5037455;28;20289;-78
2021/10/06 10:26:58;;;;;;;2.05;0.28;;;;;19.40;100926.00;;;;5030041;28;20678;-78
2021/10/06 10:29:36;;;;;;;0.70;0.20;;;;;19.50;100920.00;;;;5044531;28;20209;-78
2021/10/06 10:32:07;;;;;;;1.70;0.40;;;;;19.60;100921.00;;;;5033588;28;20954;-79
2021/10/06 10:35:01;;;;;;;1.85;0.63;;;;;19.60;100924.00;;;;5060478;28;20221;-78
2021/10/06 10:38:15;;;;;;;1.30;0.35;;;;;19.60;100922.00;;;;5044253;28;20208;-79
2021/10/06 10:40:52;;;;;;;2.05;0.22;;;;;19.70;100938.00;;;;5036872;28;20239;-79
2021/10/06 10:43:21;;;;;;;0.52;0.20;;;;;19.70;100940.00;;;;5034992;28;21219;-79
2021/10/06 10:45:51;;;;;;;1.48;0.40;;;;;19.70;100959.00;;;;5032255;28;20206;-80
2021/10/06 10:48:21;;;;;;;1.65;0.40;;;;;19.70;100963.00;;;;5032927;28;20212;-80
2021/10/06 10:51:11;;;;;;;0.73;0.30;;;;;19.60;100946.00;;;;5032593;28;20200;-79
2021/10/06 10:54:01;;;;;;;0.68;0.30;;;;;19.50;100954.00;;;;5030161;28;20211;-79
2021/10/06 10:56:43;;;;;;;1.10;0.40;;;;;19.60;100953.00;;;;5030514;28;20204;-79
2021/10/06 10:59:12;;;;;;;0.20;0.10;;;;;19.70;100958.00;;;;5030536;28;20227;-78
2021/10/06 11:01:45;;;;;;;6.15;1.15;;;;;19.70;100964.00;;;;5032186;28;20196;-78
2021/10/06 11:04:15;;;;;;;1.35;0.43;;;;;19.70;100966.00;;;;5045311;28;20188;-78
2021/10/06 11:06:45;;;;;;;3.15;0.80;;;;;19.70;100984.00;;;;5039679;28;20199;-77
2021/10/06 11:09:38;;;;;;;1.30;0.40;;;;;19.50;100989.00;;;;5030253;28;20211;-78
2021/10/06 11:12:35;;;;;;;1.27;0.50;;;;;19.50;100973.00;;;;5029774;28;20204;-78
2021/10/06 11:15:32;;;;;;;2.08;0.32;;;;;19.40;100987.00;;;;5037774;28;20204;-78
2021/10/06 11:18:21;;;;;;;0.82;0.30;;;;;19.30;100985.00;;;;5033141;28;20196;-78
2021/10/06 11:20:58;;;;;;;1.92;0.22;;;;;19.40;100989.00;;;;5039960;28;20639;-78
2021/10/06 11:23:43;;;;;;;1.45;0.25;;;;;19.30;100985.00;;;;5032917;28;20580;-78
2021/10/06 11:26:13;;;;;;;0.50;0.30;;;;;19.40;100994.00;;;;5038343;28;20283;-78
2021/10/06 11:28:44;;;;;;;1.13;0.32;;;;;19.40;101005.00;;;;5043016;28;20195;-78
2021/10/06 11:31:12;;;;;;;0.52;0.10;;;;;19.50;101003.00;;;;5039275;28;20200;-78
2021/10/06 11:33:39;;;;;;;0.57;0.22;;;;;19.50;101007.00;;;;5030979;28;20674;-77
2021/10/06 11:36:09;;;;;;;1.13;0.35;;;;;19.50;101006.00;;;;5047026;28;20202;-77
2021/10/06 11:38:36;;;;;;;1.20;0.40;;;;;19.50;101013.00;;;;5037865;28;20230;-77
2021/10/06 11:41:04;;;;;;;0.93;0.50;;;;;19.50;101012.00;;;;5032463;28;20235;-77
2021/10/06 11:43:39;;;;;;;0.60;0.40;;;;;19.50;101015.00;;;;5033114;28;20196;-78
2021/10/06 11:46:07;;;;;;;0.55;0.38;;;;;19.60;101019.00;;;;5044581;28;20191;-76
2021/10/06 11:48:35;;;;;;;2.25;0.32;;;;;19.70;101021.00;;;;5029923;28;20216;-78
2021/10/06 11:51:02;;;;;;;0.82;0.40;;;;;19.70;101023.00;;;;5029303;28;20229;-78
2021/10/06 11:53:43;;;;;;;1.23;0.55;;;;;19.70;101017.00;;;;5033748;28;20200;-77
2021/10/06 11:56:11;;;;;;;0.32;0.25;;;;;19.90;101036.00;;;;5039432;28;20192;-78
2021/10/06 11:58:40;;;;;;;1.05;0.28;;;;;20.00;101036.00;;;;5044151;28;20257;-78
2021/10/06 12:01:10;;;;;;;0.82;0.40;;;;;20.00;101050.00;;;;5036540;28;20740;-78
2021/10/06 12:03:39;;;;;;;2.80;0.35;;;;;20.10;101056.00;;;;5039307;28;20199;-78
2021/10/06 12:06:07;;;;;;;1.90;0.50;;;;;20.10;101054.00;;;;5046418;28;20203;-78
2021/10/06 12:08:35;;;;;;;0.73;0.28;;;;;20.20;101060.00;;;;5041645;28;20223;-79
2021/10/06 12:11:05;;;;;;;2.00;0.70;;;;;20.20;101051.00;;;;5036585;28;20208;-78
2021/10/06 12:13:38;;;;;;;0.57;0.30;;;;;20.10;101056.00;;;;5031496;28;20203;-80
2021/10/06 12:16:24;;;;;;;0.70;0.30;;;;;20.00;101062.00;;;;5037716;28;20195;-79
2021/10/06 12:19:00;;;;;;;2.67;0.32;;;;;20.10;101066.00;;;;5038888;28;20196;-79